createdAt,value
2023-04-17T00:03:12.162Z,97418.13
2023-04-17T00:08:14.590Z,97429.63
2023-04-17T00:13:16.170Z,97431.53
2023-04-17T00:18:17.984Z,97428.00
2023-04-17T00:23:19.558Z,97419.88
2023-04-17T00:28:21.113Z,97420.97
2023-04-17T00:33:22.865Z,97415.50
2023-04-17T00:38:24.496Z,97421.69
2023-04-17T00:43:26.187Z,97422.75
2023-04-17T00:48:28.436Z,97418.34
2023-04-17T00:53:31.721Z,97416.59
2023-04-17T00:58:35.500Z,97413.56
2023-04-17T01:03:37.829Z,97410.41
2023-04-17T01:08:41.504Z,97421.25
2023-04-17T01:13:47.153Z,97411.91
2023-04-17T01:18:49.065Z,97409.97
2023-04-17T01:23:54.549Z,97404.59
2023-04-17T01:29:00.820Z,97415.59
2023-04-17T01:34:05.060Z,97405.34
2023-04-17T01:39:07.420Z,97413.84
2023-04-17T01:44:09.165Z,97407.66
2023-04-17T01:49:11.843Z,97416.59
2023-04-17T01:54:15.412Z,97418.22
2023-04-17T01:59:17.577Z,97419.06
2023-04-17T02:04:19.338Z,97418.03
2023-04-17T02:09:21.010Z,97417.53
2023-04-17T02:14:23.120Z,97410.75
2023-04-17T02:19:24.946Z,97417.69
2023-04-17T02:24:26.577Z,97411.56
2023-04-17T02:29:28.562Z,97411.38
2023-04-17T02:34:32.045Z,97414.25
2023-04-17T02:39:35.128Z,97423.72
2023-04-17T02:44:37.141Z,97430.66
2023-04-17T02:49:38.843Z,97429.41
2023-04-17T02:54:40.541Z,97429.88
2023-04-17T02:59:43.415Z,97416.75
2023-04-17T03:04:45.188Z,97423.84
2023-04-17T03:09:47.134Z,97422.47
2023-04-17T03:14:49.163Z,97422.25
2023-04-17T03:19:50.802Z,97424.50
2023-04-17T03:24:52.425Z,97424.38
2023-04-17T03:29:55.227Z,97428.06
2023-04-17T03:34:58.260Z,97433.84
2023-04-17T03:39:59.978Z,97429.91
2023-04-17T03:45:03.373Z,97425.66
2023-04-17T03:50:06.906Z,97434.75
2023-04-17T03:55:13.918Z,97431.81
2023-04-17T04:00:17.918Z,97435.94
2023-04-17T04:05:27.713Z,97445.34
2023-04-17T04:10:32.449Z,97438.38
2023-04-17T04:15:34.663Z,97453.44
2023-04-17T04:20:41.348Z,97439.41
2023-04-17T04:25:49.641Z,97452.22
2023-04-17T04:30:59.716Z,97448.53
2023-04-17T04:36:06.099Z,97449.22
2023-04-17T04:41:10.557Z,97449.00
2023-04-17T04:46:14.128Z,97448.16
2023-04-17T04:51:20.469Z,97449.75
2023-04-17T04:56:24.490Z,97453.03
2023-04-17T05:01:27.872Z,97459.44
2023-04-17T05:06:31.225Z,97468.16
2023-04-17T05:11:37.082Z,97468.81
2023-04-17T05:16:38.818Z,97477.91
2023-04-17T05:21:41.138Z,97478.41
2023-04-17T05:26:43.278Z,97477.25
2023-04-17T05:31:45.478Z,97478.56
2023-04-17T05:37:00.754Z,97491.38
2023-04-17T05:42:02.317Z,97495.06
2023-04-17T05:47:04.120Z,97495.47
2023-04-17T05:52:06.284Z,97497.06
2023-04-17T05:57:12.749Z,97493.41
2023-04-17T06:02:15.145Z,97499.50
2023-04-17T06:07:17.015Z,97497.19
2023-04-17T06:12:18.786Z,97497.69
2023-04-17T06:17:21.219Z,97503.75
2023-04-17T06:22:23.098Z,97506.06
2023-04-17T06:27:24.745Z,97500.63
2023-04-17T06:32:26.620Z,97499.06
2023-04-17T06:37:28.356Z,97501.94
2023-04-17T06:42:30.745Z,97505.75
2023-04-17T06:47:36.845Z,97499.28
2023-04-17T06:52:38.558Z,97494.53
2023-04-17T06:57:40.219Z,97498.50
2023-04-17T07:02:41.957Z,97500.78
2023-04-17T07:07:43.607Z,97497.97
2023-04-17T07:12:45.850Z,97507.38
2023-04-17T07:17:47.527Z,97508.06
2023-04-17T07:22:49.860Z,97517.00
2023-04-17T07:27:51.412Z,97518.69
2023-04-17T07:32:53.238Z,97520.03
2023-04-17T07:37:58.048Z,97518.16
2023-04-17T07:42:59.577Z,97516.72
2023-04-17T07:48:01.305Z,97512.69
2023-04-17T07:53:02.951Z,97519.25
2023-04-17T07:58:06.440Z,97529.38
2023-04-17T08:03:08.252Z,97532.97
2023-04-17T08:08:09.971Z,97533.28
2023-04-17T08:13:11.685Z,97533.84
2023-04-17T08:18:13.853Z,97533.31
2023-04-17T08:23:15.499Z,97536.16
2023-04-17T08:28:17.399Z,97536.38
2023-04-17T08:33:19.614Z,97544.81
2023-04-17T08:38:25.466Z,97541.56
2023-04-17T08:43:31.053Z,97543.22
2023-04-17T08:48:32.722Z,97536.66
2023-04-17T08:53:34.544Z,97540.72
2023-04-17T08:58:36.470Z,97536.66
2023-04-17T09:03:42.294Z,97539.94
2023-04-17T09:09:00.667Z,97530.59
2023-04-17T09:14:02.246Z,97535.53
2023-04-17T09:19:07.772Z,97532.00
2023-04-17T09:24:10.037Z,97522.69
2023-04-17T09:29:13.803Z,97529.53
2023-04-17T09:34:16.669Z,97527.34
2023-04-17T09:39:20.706Z,97518.59
2023-04-17T09:44:26.950Z,97516.41
2023-04-17T09:49:34.472Z,97517.31
2023-04-17T09:54:39.301Z,97523.78
2023-04-17T09:59:45.190Z,97517.38
2023-04-17T10:04:47.581Z,97525.09
2023-04-17T10:09:49.195Z,97524.03
2023-04-17T10:14:52.426Z,97508.94
2023-04-17T10:19:54.348Z,97514.75
2023-04-17T10:25:11.332Z,97513.34
2023-04-17T10:30:13.809Z,97508.13
2023-04-17T10:35:15.640Z,97498.75
2023-04-17T10:40:21.519Z,97493.31
2023-04-17T10:45:23.126Z,97491.09
2023-04-17T10:50:28.420Z,97488.91
2023-04-17T10:55:30.381Z,97485.88
2023-04-17T11:00:39.525Z,97485.31
2023-04-17T11:05:44.603Z,97487.25
2023-04-17T11:10:46.255Z,97482.31
2023-04-17T11:15:50.227Z,97478.97
2023-04-17T11:20:52.265Z,97482.22
2023-04-17T11:25:53.863Z,97469.03
2023-04-17T11:30:55.608Z,97461.28
2023-04-17T11:35:57.256Z,97474.72
2023-04-17T11:41:00.042Z,97474.53
2023-04-17T11:46:01.952Z,97472.38
2023-04-17T11:51:04.362Z,97474.06
2023-04-17T11:56:13.059Z,97468.00
2023-04-17T12:01:15.132Z,97487.28
2023-04-17T12:06:16.892Z,97475.19
2023-04-17T12:11:34.364Z,97479.84
2023-04-17T12:16:36.206Z,97482.31
2023-04-17T12:21:37.841Z,97489.38
2023-04-17T12:26:51.713Z,97496.16
2023-04-17T12:31:53.349Z,97514.28
2023-04-17T12:36:55.055Z,97512.38
2023-04-17T12:41:56.572Z,97517.59
2023-04-17T12:46:58.167Z,97520.06
2023-04-17T12:52:03.613Z,97516.50
2023-04-17T12:57:05.832Z,97520.06
2023-04-17T13:02:08.104Z,97527.69
2023-04-17T13:07:10.562Z,97530.94
2023-04-17T13:12:13.091Z,97521.56
2023-04-17T13:17:16.888Z,97517.97
2023-04-17T13:22:20.580Z,97498.75
2023-04-17T13:27:22.145Z,97498.53
2023-04-17T13:32:23.843Z,97499.63
2023-04-17T13:37:25.719Z,97483.22
2023-04-17T13:42:27.584Z,97480.50
2023-04-17T13:47:29.423Z,97473.66
2023-04-17T13:52:30.990Z,97465.44
2023-04-17T13:57:32.715Z,97472.53
2023-04-17T14:02:34.628Z,97470.06
2023-04-17T14:07:37.117Z,97476.09
2023-04-17T14:12:39.221Z,97480.78
2023-04-17T14:17:43.155Z,97485.69
2023-04-17T14:22:45.729Z,97477.78
2023-04-17T14:27:47.447Z,97474.75
2023-04-17T14:32:49.469Z,97468.72
2023-04-17T14:37:51.246Z,97472.91
2023-04-17T14:42:54.834Z,97470.44
2023-04-17T14:47:56.993Z,97464.19
2023-04-17T14:52:58.682Z,97457.06
2023-04-17T14:58:00.258Z,97460.06
2023-04-17T15:03:02.348Z,97447.16
2023-04-17T15:08:04.190Z,97447.38
2023-04-17T15:13:05.907Z,97444.94
2023-04-17T15:18:07.815Z,97450.41
2023-04-17T15:23:09.542Z,97451.50
2023-04-17T15:28:12.346Z,97449.88
2023-04-17T15:33:13.974Z,97450.41
2023-04-17T15:38:15.628Z,97451.50
2023-04-17T15:43:17.298Z,97454.81
2023-04-17T15:48:18.884Z,97450.97
2023-04-17T15:53:20.578Z,97458.41
2023-04-17T15:58:22.209Z,97453.72
2023-04-17T16:03:24.480Z,97459.50
2023-04-17T16:08:26.911Z,97460.88
2023-04-17T16:13:28.555Z,97459.25
2023-04-17T16:18:30.493Z,97456.50
2023-04-17T16:23:33.184Z,97449.34
2023-04-17T16:28:34.966Z,97448.53
2023-04-17T16:33:36.557Z,97442.75
2023-04-17T16:38:38.741Z,97451.00
2023-04-17T16:43:42.531Z,97447.16
2023-04-17T16:48:44.374Z,97445.47
2023-04-17T16:53:46.891Z,97452.88
2023-04-17T16:58:48.508Z,97457.59
2023-04-17T17:03:50.450Z,97463.34
2023-04-17T17:08:55.032Z,97471.34
2023-04-17T17:13:57.811Z,97472.69
2023-04-17T17:19:00.231Z,97474.06
2023-04-17T17:24:01.909Z,97474.09
2023-04-17T17:29:03.922Z,97484.53
2023-04-17T17:34:22.663Z,97478.19
2023-04-17T17:39:27.662Z,97480.38
2023-04-17T17:44:29.258Z,97485.84
2023-04-17T17:49:30.840Z,97484.69
2023-04-17T17:54:38.584Z,97494.00
2023-04-17T17:59:40.433Z,97486.53
2023-04-17T18:04:42.208Z,97486.25
2023-04-17T18:09:44.312Z,97487.03
2023-04-17T18:14:45.989Z,97487.88
2023-04-17T18:19:47.648Z,97494.19
2023-04-17T18:24:54.543Z,97492.25
2023-04-17T18:29:56.271Z,97494.94
2023-04-17T18:34:58.320Z,97503.91
2023-04-17T18:39:59.953Z,97506.06
2023-04-17T18:45:01.930Z,97523.66
2023-04-17T18:50:04.771Z,97520.03
2023-04-17T18:55:07.095Z,97518.53
2023-04-17T19:00:09.055Z,97525.06
2023-04-17T19:05:10.686Z,97530.00
2023-04-17T19:10:12.417Z,97528.97
2023-04-17T19:15:17.369Z,97534.44
2023-04-17T19:20:19.243Z,97528.91
2023-04-17T19:25:20.823Z,97528.06
2023-04-17T19:30:22.472Z,97534.59
2023-04-17T19:35:24.666Z,97538.69
2023-04-17T19:40:26.346Z,97533.97
2023-04-17T19:45:28.645Z,97532.25
2023-04-17T19:50:30.732Z,97538.06
2023-04-17T19:55:32.312Z,97527.09
2023-04-17T20:00:33.989Z,97527.09
2023-04-17T20:05:36.160Z,97525.97
2023-04-17T20:10:37.762Z,97521.56
2023-04-17T20:15:39.822Z,97526.97
2023-04-17T20:20:42.031Z,97521.44
2023-04-17T20:25:43.710Z,97521.38
2023-04-17T20:30:45.805Z,97518.56
2023-04-17T20:35:47.511Z,97524.56
2023-04-17T20:40:49.284Z,97527.28
2023-04-17T20:45:51.360Z,97523.97
2023-04-17T20:50:53.029Z,97521.75
2023-04-17T20:55:56.568Z,97520.66
2023-04-17T21:01:01.662Z,97523.88
2023-04-17T21:06:03.710Z,97520.50
2023-04-17T21:11:05.405Z,97518.25
2023-04-17T21:16:09.708Z,97522.34
2023-04-17T21:21:11.481Z,97520.88
2023-04-17T21:26:13.212Z,97514.00
2023-04-17T21:31:15.067Z,97517.56
2023-04-17T21:36:16.856Z,97525.00
2023-04-17T21:41:18.434Z,97521.94
2023-04-17T21:46:20.156Z,97521.69
2023-04-17T21:51:21.881Z,97516.53
2023-04-17T21:56:24.049Z,97511.06
2023-04-17T22:01:25.745Z,97514.25
2023-04-17T22:06:27.523Z,97508.28
2023-04-17T22:11:29.132Z,97509.44
2023-04-17T22:16:30.817Z,97507.06
2023-04-17T22:21:32.551Z,97506.53
2023-04-17T22:26:34.143Z,97511.16
2023-04-17T22:31:36.409Z,97513.22
2023-04-17T22:36:38.182Z,97514.25
2023-04-17T22:41:39.807Z,97510.97
2023-04-17T22:46:41.526Z,97513.13
2023-04-17T22:51:43.276Z,97510.72
2023-04-17T22:56:44.901Z,97511.53
2023-04-17T23:01:46.693Z,97512.00
2023-04-17T23:06:48.329Z,97505.34
2023-04-17T23:11:50.011Z,97507.22
2023-04-17T23:16:52.819Z,97506.06
2023-04-17T23:21:54.736Z,97514.03
2023-04-17T23:26:56.316Z,97512.50
2023-04-17T23:31:58.088Z,97508.66
2023-04-17T23:36:59.638Z,97507.28
2023-04-17T23:42:06.898Z,97505.84
2023-04-17T23:47:08.663Z,97503.09
2023-04-17T23:52:10.245Z,97494.75
2023-04-17T23:57:12.025Z,97493.78
